sensor_id;sensor_type;location;lat;lon;timestamp;P1;durP1;ratioP1;P2;durP2;ratioP2
85837;SDS011;76313;47.180;19.778;2024-02-16T00:00:07;33.80;;;20.10;;
85837;SDS011;76313;47.180;19.778;2024-02-16T00:02:33;38.83;;;21.80;;
85837;SDS011;76313;47.180;19.778;2024-02-16T00:04:58;40.95;;;25.35;;
85837;SDS011;76313;47.180;19.778;2024-02-16T00:07:24;39.08;;;25.55;;
85837;SDS011;76313;47.180;19.778;2024-02-16T00:09:50;36.50;;;23.55;;
85837;SDS011;76313;47.180;19.778;2024-02-16T00:12:15;29.48;;;19.83;;
85837;SDS011;76313;47.180;19.778;2024-02-16T00:14:41;35.30;;;20.27;;
85837;SDS011;76313;47.180;19.778;2024-02-16T00:17:07;35.88;;;21.73;;
85837;SDS011;76313;47.180;19.778;2024-02-16T00:19:35;34.15;;;20.75;;
85837;SDS011;76313;47.180;19.778;2024-02-16T00:22:01;37.22;;;24.23;;
85837;SDS011;76313;47.180;19.778;2024-02-16T00:24:26;33.50;;;22.92;;
85837;SDS011;76313;47.180;19.778;2024-02-16T00:26:52;37.15;;;22.95;;
85837;SDS011;76313;47.180;19.778;2024-02-16T00:29:17;33.15;;;19.20;;
85837;SDS011;76313;47.180;19.778;2024-02-16T00:31:44;30.10;;;19.77;;
85837;SDS011;76313;47.180;19.778;2024-02-16T00:34:10;33.60;;;19.85;;
85837;SDS011;76313;47.180;19.778;2024-02-16T00:36:35;31.55;;;21.25;;
85837;SDS011;76313;47.180;19.778;2024-02-16T00:39:01;32.20;;;20.45;;
85837;SDS011;76313;47.180;19.778;2024-02-16T00:41:28;31.90;;;20.35;;
85837;SDS011;76313;47.180;19.778;2024-02-16T00:43:54;32.83;;;21.38;;
85837;SDS011;76313;47.180;19.778;2024-02-16T00:46:21;28.50;;;17.13;;
85837;SDS011;76313;47.180;19.778;2024-02-16T00:48:48;28.48;;;19.88;;
85837;SDS011;76313;47.180;19.778;2024-02-16T00:51:14;34.80;;;20.63;;
85837;SDS011;76313;47.180;19.778;2024-02-16T00:53:39;34.55;;;20.05;;
85837;SDS011;76313;47.180;19.778;2024-02-16T00:56:05;30.67;;;21.40;;
85837;SDS011;76313;47.180;19.778;2024-02-16T00:58:32;27.98;;;18.52;;
85837;SDS011;76313;47.180;19.778;2024-02-16T01:00:58;32.65;;;20.23;;
85837;SDS011;76313;47.180;19.778;2024-02-16T01:03:23;29.73;;;19.02;;
85837;SDS011;76313;47.180;19.778;2024-02-16T01:05:51;33.50;;;21.05;;
85837;SDS011;76313;47.180;19.778;2024-02-16T01:08:17;26.55;;;16.20;;
85837;SDS011;76313;47.180;19.778;2024-02-16T01:10:43;24.33;;;15.73;;
85837;SDS011;76313;47.180;19.778;2024-02-16T01:13:08;29.90;;;21.00;;
85837;SDS011;76313;47.180;19.778;2024-02-16T01:15:35;29.80;;;21.33;;
85837;SDS011;76313;47.180;19.778;2024-02-16T01:18:02;22.60;;;15.63;;
85837;SDS011;76313;47.180;19.778;2024-02-16T01:20:28;23.63;;;15.38;;
85837;SDS011;76313;47.180;19.778;2024-02-16T01:22:56;26.20;;;16.92;;
85837;SDS011;76313;47.180;19.778;2024-02-16T01:25:22;27.20;;;19.95;;
85837;SDS011;76313;47.180;19.778;2024-02-16T01:27:47;19.67;;;14.00;;
85837;SDS011;76313;47.180;19.778;2024-02-16T01:30:13;39.00;;;25.02;;
85837;SDS011;76313;47.180;19.778;2024-02-16T01:32:40;30.77;;;22.38;;
85837;SDS011;76313;47.180;19.778;2024-02-16T01:35:06;26.88;;;17.90;;
85837;SDS011;76313;47.180;19.778;2024-02-16T01:37:32;22.02;;;14.20;;
85837;SDS011;76313;47.180;19.778;2024-02-16T01:39:57;20.83;;;14.07;;
85837;SDS011;76313;47.180;19.778;2024-02-16T01:42:24;20.20;;;14.00;;
85837;SDS011;76313;47.180;19.778;2024-02-16T01:44:49;19.58;;;13.98;;
85837;SDS011;76313;47.180;19.778;2024-02-16T01:47:15;19.20;;;13.55;;
85837;SDS011;76313;47.180;19.778;2024-02-16T01:49:41;19.70;;;13.57;;
85837;SDS011;76313;47.180;19.778;2024-02-16T01:52:07;24.30;;;19.00;;
85837;SDS011;76313;47.180;19.778;2024-02-16T01:54:32;26.85;;;18.35;;
85837;SDS011;76313;47.180;19.778;2024-02-16T01:56:58;20.38;;;14.23;;
85837;SDS011;76313;47.180;19.778;2024-02-16T01:59:24;24.02;;;16.35;;
85837;SDS011;76313;47.180;19.778;2024-02-16T02:01:49;22.05;;;17.42;;
85837;SDS011;76313;47.180;19.778;2024-02-16T02:04:16;19.42;;;15.25;;
85837;SDS011;76313;47.180;19.778;2024-02-16T02:06:41;19.85;;;13.77;;
85837;SDS011;76313;47.180;19.778;2024-02-16T02:09:07;17.33;;;13.10;;
85837;SDS011;76313;47.180;19.778;2024-02-16T02:11:34;19.67;;;14.05;;
85837;SDS011;76313;47.180;19.778;2024-02-16T02:13:59;18.10;;;13.18;;
85837;SDS011;76313;47.180;19.778;2024-02-16T02:16:25;18.75;;;12.98;;
85837;SDS011;76313;47.180;19.778;2024-02-16T02:18:51;17.88;;;12.98;;
85837;SDS011;76313;47.180;19.778;2024-02-16T02:21:17;17.95;;;13.45;;
85837;SDS011;76313;47.180;19.778;2024-02-16T02:23:43;21.75;;;15.77;;
85837;SDS011;76313;47.180;19.778;2024-02-16T02:26:09;18.50;;;13.35;;
85837;SDS011;76313;47.180;19.778;2024-02-16T02:28:34;21.25;;;14.63;;
85837;SDS011;76313;47.180;19.778;2024-02-16T02:31:00;22.83;;;17.17;;
85837;SDS011;76313;47.180;19.778;2024-02-16T02:33:25;23.90;;;15.85;;
85837;SDS011;76313;47.180;19.778;2024-02-16T02:35:51;23.25;;;14.88;;
85837;SDS011;76313;47.180;19.778;2024-02-16T02:38:16;19.75;;;14.85;;
85837;SDS011;76313;47.180;19.778;2024-02-16T02:40:42;20.55;;;15.77;;
85837;SDS011;76313;47.180;19.778;2024-02-16T02:43:07;19.83;;;13.00;;
85837;SDS011;76313;47.180;19.778;2024-02-16T02:45:33;18.90;;;13.20;;
85837;SDS011;76313;47.180;19.778;2024-02-16T02:47:59;17.58;;;12.73;;
85837;SDS011;76313;47.180;19.778;2024-02-16T02:50:25;18.20;;;13.02;;
85837;SDS011;76313;47.180;19.778;2024-02-16T02:52:51;17.15;;;14.10;;
85837;SDS011;76313;47.180;19.778;2024-02-16T02:55:17;19.23;;;14.10;;
85837;SDS011;76313;47.180;19.778;2024-02-16T02:57:42;20.30;;;14.90;;
85837;SDS011;76313;47.180;19.778;2024-02-16T03:00:08;17.85;;;12.80;;
85837;SDS011;76313;47.180;19.778;2024-02-16T03:02:37;19.13;;;14.43;;
85837;SDS011;76313;47.180;19.778;2024-02-16T03:05:04;16.95;;;12.57;;
85837;SDS011;76313;47.180;19.778;2024-02-16T03:07:32;18.80;;;15.25;;
85837;SDS011;76313;47.180;19.778;2024-02-16T03:09:58;19.20;;;12.85;;
85837;SDS011;76313;47.180;19.778;2024-02-16T03:12:24;19.20;;;13.32;;
85837;SDS011;76313;47.180;19.778;2024-02-16T03:14:49;20.77;;;14.38;;
85837;SDS011;76313;47.180;19.778;2024-02-16T03:17:15;22.20;;;15.82;;
85837;SDS011;76313;47.180;19.778;2024-02-16T03:19:40;19.63;;;13.93;;
85837;SDS011;76313;47.180;19.778;2024-02-16T03:22:06;21.70;;;13.88;;
85837;SDS011;76313;47.180;19.778;2024-02-16T03:24:32;20.45;;;14.43;;
85837;SDS011;76313;47.180;19.778;2024-02-16T03:26:57;18.48;;;12.90;;
85837;SDS011;76313;47.180;19.778;2024-02-16T03:29:23;17.27;;;12.65;;
85837;SDS011;76313;47.180;19.778;2024-02-16T03:31:49;25.25;;;19.05;;
85837;SDS011;76313;47.180;19.778;2024-02-16T03:34:15;21.35;;;16.88;;
85837;SDS011;76313;47.180;19.778;2024-02-16T03:36:40;19.98;;;14.05;;
85837;SDS011;76313;47.180;19.778;2024-02-16T03:39:06;18.15;;;14.93;;
85837;SDS011;76313;47.180;19.778;2024-02-16T03:41:34;19.40;;;16.05;;
85837;SDS011;76313;47.180;19.778;2024-02-16T03:43:59;18.08;;;14.90;;
85837;SDS011;76313;47.180;19.778;2024-02-16T03:46:25;16.00;;;11.82;;
85837;SDS011;76313;47.180;19.778;2024-02-16T03:48:51;18.27;;;14.93;;
85837;SDS011;76313;47.180;19.778;2024-02-16T03:51:17;16.52;;;11.35;;
85837;SDS011;76313;47.180;19.778;2024-02-16T03:53:42;19.42;;;13.93;;
85837;SDS011;76313;47.180;19.778;2024-02-16T03:56:10;17.75;;;12.70;;
85837;SDS011;76313;47.180;19.778;2024-02-16T03:58:37;18.80;;;11.50;;
85837;SDS011;76313;47.180;19.778;2024-02-16T04:01:03;18.67;;;14.98;;
85837;SDS011;76313;47.180;19.778;2024-02-16T04:03:31;18.23;;;11.48;;
85837;SDS011;76313;47.180;19.778;2024-02-16T04:05:57;18.70;;;13.57;;
85837;SDS011;76313;47.180;19.778;2024-02-16T04:08:24;18.73;;;14.88;;
85837;SDS011;76313;47.180;19.778;2024-02-16T04:10:50;17.63;;;14.35;;
85837;SDS011;76313;47.180;19.778;2024-02-16T04:13:15;15.70;;;11.32;;
85837;SDS011;76313;47.180;19.778;2024-02-16T04:15:41;17.05;;;11.90;;
85837;SDS011;76313;47.180;19.778;2024-02-16T04:18:07;17.80;;;14.40;;
85837;SDS011;76313;47.180;19.778;2024-02-16T04:20:32;15.77;;;12.20;;
85837;SDS011;76313;47.180;19.778;2024-02-16T04:22:58;13.25;;;8.85;;
85837;SDS011;76313;47.180;19.778;2024-02-16T04:25:23;15.23;;;10.95;;
85837;SDS011;76313;47.180;19.778;2024-02-16T04:27:49;14.63;;;10.57;;
85837;SDS011;76313;47.180;19.778;2024-02-16T04:30:14;14.30;;;10.50;;
85837;SDS011;76313;47.180;19.778;2024-02-16T04:32:40;15.93;;;12.73;;
85837;SDS011;76313;47.180;19.778;2024-02-16T04:35:06;13.90;;;11.48;;
85837;SDS011;76313;47.180;19.778;2024-02-16T04:37:36;15.68;;;12.98;;
85837;SDS011;76313;47.180;19.778;2024-02-16T04:40:04;13.57;;;11.65;;
85837;SDS011;76313;47.180;19.778;2024-02-16T04:42:30;15.38;;;12.73;;
85837;SDS011;76313;47.180;19.778;2024-02-16T04:44:56;16.70;;;13.60;;
85837;SDS011;76313;47.180;19.778;2024-02-16T04:47:21;12.98;;;10.60;;
85837;SDS011;76313;47.180;19.778;2024-02-16T04:49:47;14.63;;;10.02;;
85837;SDS011;76313;47.180;19.778;2024-02-16T04:52:12;16.92;;;12.75;;
85837;SDS011;76313;47.180;19.778;2024-02-16T04:54:38;15.48;;;10.40;;
85837;SDS011;76313;47.180;19.778;2024-02-16T04:57:05;13.10;;;9.85;;
85837;SDS011;76313;47.180;19.778;2024-02-16T04:59:31;12.77;;;10.63;;
85837;SDS011;76313;47.180;19.778;2024-02-16T05:01:57;15.48;;;9.70;;
85837;SDS011;76313;47.180;19.778;2024-02-16T05:04:22;14.75;;;8.77;;
85837;SDS011;76313;47.180;19.778;2024-02-16T05:06:48;15.10;;;12.35;;
85837;SDS011;76313;47.180;19.778;2024-02-16T05:09:14;13.40;;;9.88;;
85837;SDS011;76313;47.180;19.778;2024-02-16T05:11:43;13.05;;;9.95;;
85837;SDS011;76313;47.180;19.778;2024-02-16T05:14:10;15.25;;;10.63;;
85837;SDS011;76313;47.180;19.778;2024-02-16T05:16:37;13.98;;;9.88;;
85837;SDS011;76313;47.180;19.778;2024-02-16T05:19:03;17.50;;;12.13;;
85837;SDS011;76313;47.180;19.778;2024-02-16T05:21:28;13.52;;;10.10;;
85837;SDS011;76313;47.180;19.778;2024-02-16T05:23:54;14.02;;;11.23;;
85837;SDS011;76313;47.180;19.778;2024-02-16T05:26:20;13.38;;;8.90;;
85837;SDS011;76313;47.180;19.778;2024-02-16T05:28:45;14.35;;;11.63;;
85837;SDS011;76313;47.180;19.778;2024-02-16T05:31:16;15.10;;;12.02;;
85837;SDS011;76313;47.180;19.778;2024-02-16T05:33:47;13.90;;;10.25;;
85837;SDS011;76313;47.180;19.778;2024-02-16T05:38:45;15.55;;;10.15;;
85837;SDS011;76313;47.180;19.778;2024-02-16T05:41:10;17.05;;;11.80;;
85837;SDS011;76313;47.180;19.778;2024-02-16T05:43:36;16.60;;;14.18;;
85837;SDS011;76313;47.180;19.778;2024-02-16T05:46:03;21.45;;;13.45;;
85837;SDS011;76313;47.180;19.778;2024-02-16T05:48:32;17.67;;;12.20;;
85837;SDS011;76313;47.180;19.778;2024-02-16T05:51:00;17.13;;;14.32;;
85837;SDS011;76313;47.180;19.778;2024-02-16T05:53:26;17.60;;;11.75;;
85837;SDS011;76313;47.180;19.778;2024-02-16T05:55:52;30.52;;;22.48;;
85837;SDS011;76313;47.180;19.778;2024-02-16T05:58:18;27.58;;;21.35;;
85837;SDS011;76313;47.180;19.778;2024-02-16T06:00:44;20.25;;;16.90;;
85837;SDS011;76313;47.180;19.778;2024-02-16T06:03:12;21.15;;;17.35;;
85837;SDS011;76313;47.180;19.778;2024-02-16T06:05:38;20.45;;;16.35;;
85837;SDS011;76313;47.180;19.778;2024-02-16T06:08:05;16.05;;;12.25;;
85837;SDS011;76313;47.180;19.778;2024-02-16T06:10:32;19.20;;;16.08;;
85837;SDS011;76313;47.180;19.778;2024-02-16T06:12:58;15.10;;;11.93;;
85837;SDS011;76313;47.180;19.778;2024-02-16T06:15:24;16.80;;;11.38;;
85837;SDS011;76313;47.180;19.778;2024-02-16T06:17:50;16.80;;;12.38;;
85837;SDS011;76313;47.180;19.778;2024-02-16T06:20:16;16.48;;;14.55;;
85837;SDS011;76313;47.180;19.778;2024-02-16T06:22:41;17.25;;;14.48;;
85837;SDS011;76313;47.180;19.778;2024-02-16T06:25:07;13.40;;;10.05;;
85837;SDS011;76313;47.180;19.778;2024-02-16T06:27:33;13.90;;;10.05;;
85837;SDS011;76313;47.180;19.778;2024-02-16T06:29:59;15.77;;;12.30;;
85837;SDS011;76313;47.180;19.778;2024-02-16T06:32:24;15.23;;;11.50;;
85837;SDS011;76313;47.180;19.778;2024-02-16T06:34:50;16.60;;;11.48;;
85837;SDS011;76313;47.180;19.778;2024-02-16T06:37:16;18.00;;;13.30;;
85837;SDS011;76313;47.180;19.778;2024-02-16T06:39:42;19.73;;;14.02;;
85837;SDS011;76313;47.180;19.778;2024-02-16T06:42:08;17.80;;;11.57;;
85837;SDS011;76313;47.180;19.778;2024-02-16T06:44:33;16.95;;;11.20;;
85837;SDS011;76313;47.180;19.778;2024-02-16T06:46:59;18.67;;;15.75;;
85837;SDS011;76313;47.180;19.778;2024-02-16T06:49:24;18.27;;;12.95;;
85837;SDS011;76313;47.180;19.778;2024-02-16T06:51:50;16.00;;;14.30;;
85837;SDS011;76313;47.180;19.778;2024-02-16T06:54:15;16.00;;;13.85;;
85837;SDS011;76313;47.180;19.778;2024-02-16T06:56:41;16.73;;;11.18;;
85837;SDS011;76313;47.180;19.778;2024-02-16T06:59:06;14.63;;;11.05;;
85837;SDS011;76313;47.180;19.778;2024-02-16T07:01:32;17.65;;;11.65;;
85837;SDS011;76313;47.180;19.778;2024-02-16T07:03:57;14.25;;;11.35;;
85837;SDS011;76313;47.180;19.778;2024-02-16T07:06:23;15.90;;;13.85;;
85837;SDS011;76313;47.180;19.778;2024-02-16T07:08:48;14.60;;;11.07;;
85837;SDS011;76313;47.180;19.778;2024-02-16T07:11:14;14.32;;;11.02;;
85837;SDS011;76313;47.180;19.778;2024-02-16T07:13:40;15.45;;;11.38;;
85837;SDS011;76313;47.180;19.778;2024-02-16T07:16:08;14.02;;;12.38;;
85837;SDS011;76313;47.180;19.778;2024-02-16T07:18:33;13.35;;;9.90;;
85837;SDS011;76313;47.180;19.778;2024-02-16T07:20:59;12.45;;;8.98;;
85837;SDS011;76313;47.180;19.778;2024-02-16T07:23:25;14.30;;;11.95;;
85837;SDS011;76313;47.180;19.778;2024-02-16T07:25:50;15.98;;;11.50;;
85837;SDS011;76313;47.180;19.778;2024-02-16T07:28:16;14.88;;;10.27;;
85837;SDS011;76313;47.180;19.778;2024-02-16T07:30:41;15.25;;;12.23;;
85837;SDS011;76313;47.180;19.778;2024-02-16T07:33:09;13.27;;;10.45;;
85837;SDS011;76313;47.180;19.778;2024-02-16T07:35:34;15.32;;;12.95;;
85837;SDS011;76313;47.180;19.778;2024-02-16T07:38:09;16.50;;;13.10;;
85837;SDS011;76313;47.180;19.778;2024-02-16T07:40:35;13.55;;;10.40;;
85837;SDS011;76313;47.180;19.778;2024-02-16T07:43:01;15.07;;;10.40;;
85837;SDS011;76313;47.180;19.778;2024-02-16T07:45:28;15.05;;;11.82;;
85837;SDS011;76313;47.180;19.778;2024-02-16T07:47:54;15.40;;;10.52;;
85837;SDS011;76313;47.180;19.778;2024-02-16T07:50:20;13.50;;;9.40;;
85837;SDS011;76313;47.180;19.778;2024-02-16T07:52:46;15.07;;;10.00;;
85837;SDS011;76313;47.180;19.778;2024-02-16T07:55:12;12.73;;;10.98;;
85837;SDS011;76313;47.180;19.778;2024-02-16T07:57:38;12.48;;;9.52;;
85837;SDS011;76313;47.180;19.778;2024-02-16T08:00:06;12.43;;;9.52;;
85837;SDS011;76313;47.180;19.778;2024-02-16T08:02:32;11.85;;;8.98;;
85837;SDS011;76313;47.180;19.778;2024-02-16T08:04:58;10.90;;;8.27;;
85837;SDS011;76313;47.180;19.778;2024-02-16T08:07:24;11.55;;;8.52;;
85837;SDS011;76313;47.180;19.778;2024-02-16T08:09:49;11.02;;;8.25;;
85837;SDS011;76313;47.180;19.778;2024-02-16T08:12:15;11.27;;;7.88;;
85837;SDS011;76313;47.180;19.778;2024-02-16T08:14:41;11.45;;;9.57;;
85837;SDS011;76313;47.180;19.778;2024-02-16T08:17:07;14.63;;;10.15;;
85837;SDS011;76313;47.180;19.778;2024-02-16T08:19:34;14.10;;;9.80;;
85837;SDS011;76313;47.180;19.778;2024-02-16T08:22:01;12.57;;;10.35;;
85837;SDS011;76313;47.180;19.778;2024-02-16T08:24:32;10.90;;;9.02;;
85837;SDS011;76313;47.180;19.778;2024-02-16T08:26:58;11.40;;;8.48;;
85837;SDS011;76313;47.180;19.778;2024-02-16T08:29:23;10.68;;;9.05;;
85837;SDS011;76313;47.180;19.778;2024-02-16T08:31:50;11.48;;;8.32;;
85837;SDS011;76313;47.180;19.778;2024-02-16T08:34:16;10.25;;;7.82;;
85837;SDS011;76313;47.180;19.778;2024-02-16T08:36:46;13.20;;;7.97;;
85837;SDS011;76313;47.180;19.778;2024-02-16T08:39:12;12.05;;;8.40;;
85837;SDS011;76313;47.180;19.778;2024-02-16T08:41:38;11.68;;;8.52;;
85837;SDS011;76313;47.180;19.778;2024-02-16T08:44:04;11.70;;;6.85;;
85837;SDS011;76313;47.180;19.778;2024-02-16T08:46:32;10.05;;;7.22;;
85837;SDS011;76313;47.180;19.778;2024-02-16T08:48:58;13.10;;;6.78;;
85837;SDS011;76313;47.180;19.778;2024-02-16T08:51:25;8.32;;;5.68;;
85837;SDS011;76313;47.180;19.778;2024-02-16T08:53:50;8.77;;;7.00;;
85837;SDS011;76313;47.180;19.778;2024-02-16T08:56:15;9.55;;;6.55;;
85837;SDS011;76313;47.180;19.778;2024-02-16T08:58:41;9.77;;;6.05;;
85837;SDS011;76313;47.180;19.778;2024-02-16T09:01:06;10.02;;;7.07;;
85837;SDS011;76313;47.180;19.778;2024-02-16T09:03:32;7.93;;;5.70;;
85837;SDS011;76313;47.180;19.778;2024-02-16T09:06:02;8.90;;;6.63;;
85837;SDS011;76313;47.180;19.778;2024-02-16T09:08:28;9.50;;;7.15;;
85837;SDS011;76313;47.180;19.778;2024-02-16T09:10:58;7.45;;;5.45;;
85837;SDS011;76313;47.180;19.778;2024-02-16T09:13:31;7.85;;;5.50;;
85837;SDS011;76313;47.180;19.778;2024-02-16T09:15:57;9.20;;;6.10;;
85837;SDS011;76313;47.180;19.778;2024-02-16T09:18:23;7.70;;;5.18;;
85837;SDS011;76313;47.180;19.778;2024-02-16T09:20:49;8.23;;;6.78;;
85837;SDS011;76313;47.180;19.778;2024-02-16T09:23:14;10.85;;;7.00;;
85837;SDS011;76313;47.180;19.778;2024-02-16T09:25:40;9.52;;;5.47;;
85837;SDS011;76313;47.180;19.778;2024-02-16T09:28:06;7.43;;;5.70;;
85837;SDS011;76313;47.180;19.778;2024-02-16T09:30:32;6.40;;;4.50;;
85837;SDS011;76313;47.180;19.778;2024-02-16T09:32:57;8.18;;;4.28;;
85837;SDS011;76313;47.180;19.778;2024-02-16T09:35:23;8.32;;;6.13;;
85837;SDS011;76313;47.180;19.778;2024-02-16T09:37:48;8.80;;;5.97;;
85837;SDS011;76313;47.180;19.778;2024-02-16T09:40:14;8.10;;;6.57;;
85837;SDS011;76313;47.180;19.778;2024-02-16T09:42:40;8.73;;;5.18;;
85837;SDS011;76313;47.180;19.778;2024-02-16T09:45:06;7.28;;;5.28;;
85837;SDS011;76313;47.180;19.778;2024-02-16T09:47:32;7.72;;;4.57;;
85837;SDS011;76313;47.180;19.778;2024-02-16T09:50:00;8.30;;;5.22;;
85837;SDS011;76313;47.180;19.778;2024-02-16T09:52:26;6.85;;;4.63;;
85837;SDS011;76313;47.180;19.778;2024-02-16T09:54:51;6.80;;;4.57;;
85837;SDS011;76313;47.180;19.778;2024-02-16T09:57:17;8.65;;;5.22;;
85837;SDS011;76313;47.180;19.778;2024-02-16T09:59:43;6.65;;;4.47;;
85837;SDS011;76313;47.180;19.778;2024-02-16T10:02:09;7.28;;;4.80;;
85837;SDS011;76313;47.180;19.778;2024-02-16T10:04:35;7.75;;;5.00;;
85837;SDS011;76313;47.180;19.778;2024-02-16T10:07:01;7.47;;;6.18;;
85837;SDS011;76313;47.180;19.778;2024-02-16T10:09:27;6.72;;;4.50;;
85837;SDS011;76313;47.180;19.778;2024-02-16T10:11:57;7.75;;;5.57;;
85837;SDS011;76313;47.180;19.778;2024-02-16T10:14:22;8.52;;;5.93;;
85837;SDS011;76313;47.180;19.778;2024-02-16T10:16:59;7.03;;;4.60;;
85837;SDS011;76313;47.180;19.778;2024-02-16T10:19:29;7.65;;;6.38;;
85837;SDS011;76313;47.180;19.778;2024-02-16T10:22:15;7.85;;;5.72;;
85837;SDS011;76313;47.180;19.778;2024-02-16T10:24:41;8.15;;;6.28;;
85837;SDS011;76313;47.180;19.778;2024-02-16T10:27:17;8.15;;;4.70;;
85837;SDS011;76313;47.180;19.778;2024-02-16T10:29:46;6.63;;;4.45;;
85837;SDS011;76313;47.180;19.778;2024-02-16T10:32:14;6.38;;;4.50;;
85837;SDS011;76313;47.180;19.778;2024-02-16T10:34:40;7.03;;;5.40;;
85837;SDS011;76313;47.180;19.778;2024-02-16T10:37:06;6.88;;;4.78;;
85837;SDS011;76313;47.180;19.778;2024-02-16T10:39:33;7.22;;;4.78;;
85837;SDS011;76313;47.180;19.778;2024-02-16T10:42:00;8.35;;;6.18;;
85837;SDS011;76313;47.180;19.778;2024-02-16T10:44:29;8.57;;;6.25;;
85837;SDS011;76313;47.180;19.778;2024-02-16T10:46:55;7.32;;;5.82;;
85837;SDS011;76313;47.180;19.778;2024-02-16T10:49:23;8.10;;;6.88;;
85837;SDS011;76313;47.180;19.778;2024-02-16T10:51:51;7.53;;;5.00;;
85837;SDS011;76313;47.180;19.778;2024-02-16T10:54:21;8.65;;;5.20;;
85837;SDS011;76313;47.180;19.778;2024-02-16T10:56:48;7.55;;;5.63;;
85837;SDS011;76313;47.180;19.778;2024-02-16T10:59:15;8.93;;;7.00;;
85837;SDS011;76313;47.180;19.778;2024-02-16T11:01:42;7.15;;;4.93;;
85837;SDS011;76313;47.180;19.778;2024-02-16T11:04:16;7.78;;;4.90;;
85837;SDS011;76313;47.180;19.778;2024-02-16T11:11:51;7.40;;;4.53;;
85837;SDS011;76313;47.180;19.778;2024-02-16T11:14:18;8.98;;;5.70;;
85837;SDS011;76313;47.180;19.778;2024-02-16T11:16:44;6.38;;;4.03;;
85837;SDS011;76313;47.180;19.778;2024-02-16T11:19:10;7.88;;;5.10;;
85837;SDS011;76313;47.180;19.778;2024-02-16T11:21:35;7.22;;;5.53;;
85837;SDS011;76313;47.180;19.778;2024-02-16T11:24:07;7.65;;;6.00;;
85837;SDS011;76313;47.180;19.778;2024-02-16T11:26:41;7.90;;;6.90;;
85837;SDS011;76313;47.180;19.778;2024-02-16T11:29:08;7.68;;;4.55;;
85837;SDS011;76313;47.180;19.778;2024-02-16T11:31:35;6.65;;;4.45;;
85837;SDS011;76313;47.180;19.778;2024-02-16T11:34:00;7.03;;;4.75;;
85837;SDS011;76313;47.180;19.778;2024-02-16T11:36:26;7.28;;;5.40;;
85837;SDS011;76313;47.180;19.778;2024-02-16T11:38:52;6.32;;;4.50;;
85837;SDS011;76313;47.180;19.778;2024-02-16T11:41:17;5.90;;;4.03;;
85837;SDS011;76313;47.180;19.778;2024-02-16T11:43:43;6.03;;;4.10;;
85837;SDS011;76313;47.180;19.778;2024-02-16T11:46:12;6.63;;;4.28;;
85837;SDS011;76313;47.180;19.778;2024-02-16T11:48:38;6.35;;;3.95;;
85837;SDS011;76313;47.180;19.778;2024-02-16T11:51:04;6.25;;;3.80;;
85837;SDS011;76313;47.180;19.778;2024-02-16T11:53:30;6.55;;;4.30;;
85837;SDS011;76313;47.180;19.778;2024-02-16T11:55:56;6.40;;;4.53;;
85837;SDS011;76313;47.180;19.778;2024-02-16T11:58:22;5.97;;;4.47;;
85837;SDS011;76313;47.180;19.778;2024-02-16T12:00:48;6.30;;;4.32;;
85837;SDS011;76313;47.180;19.778;2024-02-16T12:03:21;7.38;;;4.40;;
85837;SDS011;76313;47.180;19.778;2024-02-16T12:05:54;5.85;;;3.85;;
85837;SDS011;76313;47.180;19.778;2024-02-16T12:08:21;5.93;;;3.50;;
85837;SDS011;76313;47.180;19.778;2024-02-16T12:10:50;5.10;;;2.97;;
85837;SDS011;76313;47.180;19.778;2024-02-16T12:18:18;6.07;;;3.35;;
85837;SDS011;76313;47.180;19.778;2024-02-16T12:20:45;6.05;;;3.30;;
85837;SDS011;76313;47.180;19.778;2024-02-16T12:23:13;7.35;;;3.90;;
85837;SDS011;76313;47.180;19.778;2024-02-16T12:25:39;5.65;;;3.40;;
85837;SDS011;76313;47.180;19.778;2024-02-16T12:28:05;5.60;;;3.35;;
85837;SDS011;76313;47.180;19.778;2024-02-16T12:30:31;5.60;;;3.22;;
85837;SDS011;76313;47.180;19.778;2024-02-16T12:32:56;5.85;;;3.50;;
85837;SDS011;76313;47.180;19.778;2024-02-16T12:35:21;5.80;;;3.53;;
85837;SDS011;76313;47.180;19.778;2024-02-16T12:37:47;5.80;;;2.83;;
85837;SDS011;76313;47.180;19.778;2024-02-16T12:40:12;4.50;;;2.13;;
85837;SDS011;76313;47.180;19.778;2024-02-16T12:42:38;4.95;;;2.88;;
85837;SDS011;76313;47.180;19.778;2024-02-16T12:45:04;4.93;;;2.80;;
85837;SDS011;76313;47.180;19.778;2024-02-16T12:47:29;5.78;;;3.78;;
85837;SDS011;76313;47.180;19.778;2024-02-16T12:49:55;6.50;;;4.07;;
85837;SDS011;76313;47.180;19.778;2024-02-16T12:52:21;6.05;;;3.67;;
85837;SDS011;76313;47.180;19.778;2024-02-16T12:54:47;5.80;;;3.58;;
85837;SDS011;76313;47.180;19.778;2024-02-16T12:57:13;5.25;;;2.63;;
85837;SDS011;76313;47.180;19.778;2024-02-16T12:59:38;6.03;;;3.10;;
85837;SDS011;76313;47.180;19.778;2024-02-16T13:02:04;5.78;;;3.42;;
85837;SDS011;76313;47.180;19.778;2024-02-16T13:04:30;5.70;;;3.45;;
85837;SDS011;76313;47.180;19.778;2024-02-16T13:06:57;5.13;;;3.08;;
85837;SDS011;76313;47.180;19.778;2024-02-16T13:09:23;5.63;;;3.55;;
85837;SDS011;76313;47.180;19.778;2024-02-16T13:11:48;6.45;;;3.20;;
85837;SDS011;76313;47.180;19.778;2024-02-16T13:14:19;5.68;;;3.03;;
85837;SDS011;76313;47.180;19.778;2024-02-16T13:16:47;6.05;;;3.20;;
85837;SDS011;76313;47.180;19.778;2024-02-16T13:19:13;12.75;;;8.80;;
85837;SDS011;76313;47.180;19.778;2024-02-16T13:21:39;8.43;;;5.65;;
85837;SDS011;76313;47.180;19.778;2024-02-16T13:24:05;5.38;;;2.83;;
85837;SDS011;76313;47.180;19.778;2024-02-16T13:26:31;5.43;;;3.22;;
85837;SDS011;76313;47.180;19.778;2024-02-16T13:28:56;7.20;;;5.00;;
85837;SDS011;76313;47.180;19.778;2024-02-16T13:31:22;6.07;;;4.72;;
85837;SDS011;76313;47.180;19.778;2024-02-16T13:33:49;6.72;;;3.10;;
85837;SDS011;76313;47.180;19.778;2024-02-16T13:36:14;7.18;;;4.00;;
85837;SDS011;76313;47.180;19.778;2024-02-16T13:38:40;5.82;;;3.95;;
85837;SDS011;76313;47.180;19.778;2024-02-16T13:41:05;6.00;;;3.80;;
85837;SDS011;76313;47.180;19.778;2024-02-16T13:43:31;5.68;;;3.13;;
85837;SDS011;76313;47.180;19.778;2024-02-16T13:45:57;5.45;;;3.67;;
85837;SDS011;76313;47.180;19.778;2024-02-16T13:48:23;5.30;;;3.22;;
85837;SDS011;76313;47.180;19.778;2024-02-16T13:50:49;10.27;;;7.32;;
85837;SDS011;76313;47.180;19.778;2024-02-16T13:53:16;13.80;;;11.70;;
85837;SDS011;76313;47.180;19.778;2024-02-16T13:55:42;7.57;;;4.70;;
85837;SDS011;76313;47.180;19.778;2024-02-16T13:58:09;6.18;;;3.75;;
85837;SDS011;76313;47.180;19.778;2024-02-16T14:00:37;6.90;;;3.67;;
85837;SDS011;76313;47.180;19.778;2024-02-16T14:03:06;6.78;;;3.40;;
85837;SDS011;76313;47.180;19.778;2024-02-16T14:05:34;5.28;;;3.45;;
85837;SDS011;76313;47.180;19.778;2024-02-16T14:08:03;6.68;;;4.43;;
85837;SDS011;76313;47.180;19.778;2024-02-16T14:10:30;6.78;;;4.00;;
85837;SDS011;76313;47.180;19.778;2024-02-16T14:12:58;6.07;;;3.70;;
85837;SDS011;76313;47.180;19.778;2024-02-16T14:15:24;6.03;;;4.20;;
85837;SDS011;76313;47.180;19.778;2024-02-16T14:17:49;7.47;;;3.67;;
85837;SDS011;76313;47.180;19.778;2024-02-16T14:20:15;6.47;;;4.90;;
85837;SDS011;76313;47.180;19.778;2024-02-16T14:22:40;6.38;;;4.18;;
85837;SDS011;76313;47.180;19.778;2024-02-16T14:25:06;5.90;;;3.10;;